Terminal Aerodrome Forecast
Issued by NWS Jackson, KY

Home | Current Version | Previous Version | Text Only | Print | Product List | Glossary On
Versions: 1 2 3 4 5 6 7 8 9 10 11 12 13 14 15 16 17
957
FTUS43 KJKL 282107 AAB
TAFLOZ
TAF AMD
KLOZ 282107Z 2821/2918 07011G19KT P6SM -TSRA BKN050CB OVC110
     FM282130 VRB03KT P6SM VCTS SCT050CB OVC110
     FM290000 VRB03KT P6SM SCT250=

USA.gov is the U.S. government's official web portal to all federal, state and local government web resources and services.